createdAt,value
2023-03-20T00:14:05.837Z,1019.27
2023-03-20T00:28:05.868Z,1019.35
2023-03-20T00:42:05.869Z,1019.25
2023-03-20T00:56:05.879Z,1019.17
2023-03-20T01:10:06.012Z,1019.14
2023-03-20T01:24:05.929Z,1019.16
2023-03-20T01:38:06.039Z,1019.14
2023-03-20T01:52:05.954Z,1019.09
2023-03-20T02:06:05.965Z,1018.95
2023-03-20T02:20:05.989Z,1019
2023-03-20T02:34:05.974Z,1018.96
2023-03-20T02:48:06.133Z,1019
2023-03-20T03:02:06.005Z,1018.82
2023-03-20T03:16:06.046Z,1018.8
2023-03-20T03:30:06.029Z,1018.75
2023-03-20T03:44:06.048Z,1018.85
2023-03-20T03:58:06.074Z,1018.79
2023-03-20T04:12:06.076Z,1018.74
2023-03-20T04:26:06.089Z,1018.61
2023-03-20T04:40:06.094Z,1018.66
2023-03-20T04:54:06.140Z,1018.75
2023-03-20T05:08:06.129Z,1018.73
2023-03-20T05:23:06.461Z,1018.6
2023-03-20T05:38:06.166Z,1018.74
2023-03-20T05:53:06.203Z,1018.81
2023-03-20T06:09:06.197Z,1018.91
2023-03-20T06:24:06.198Z,1018.91
2023-03-20T06:39:06.348Z,1019.1
2023-03-20T06:54:06.218Z,1019.31
2023-03-20T07:09:06.242Z,1019.43
2023-03-20T07:24:06.377Z,1019.55
2023-03-20T07:39:06.417Z,1019.61
2023-03-20T07:53:06.294Z,1019.67
2023-03-20T08:07:06.328Z,1019.61
2023-03-20T08:21:06.300Z,1019.65
2023-03-20T08:35:06.521Z,1019.61
2023-03-20T08:49:06.464Z,1019.61
2023-03-20T09:03:06.381Z,1019.55
2023-03-20T09:17:06.371Z,1019.54
2023-03-20T09:31:06.433Z,1019.49
2023-03-20T09:45:06.519Z,1019.52
2023-03-20T09:59:06.435Z,1019.51
2023-03-20T10:13:06.421Z,1019.4
2023-03-20T10:27:06.428Z,1019.3
2023-03-20T10:41:06.430Z,1019.3
2023-03-20T10:55:06.459Z,1019.2
2023-03-20T11:09:06.462Z,1019.18
2023-03-20T11:23:06.492Z,1019.11
2023-03-20T11:37:10.348Z,1019.02
2023-03-20T11:52:06.622Z,1018.9
2023-03-20T12:07:06.525Z,1018.64
2023-03-20T12:22:06.658Z,1018.51
2023-03-20T12:37:06.562Z,1018.44
2023-03-20T12:52:06.575Z,1018.27
2023-03-20T13:07:07.573Z,1018.12
2023-03-20T13:22:06.613Z,1018.13
2023-03-20T13:37:20.151Z,1018.09
2023-03-20T13:52:06.647Z,1018
2023-03-20T14:07:06.666Z,1017.99
2023-03-20T14:22:06.695Z,1017.9
2023-03-20T14:37:06.689Z,1017.92
2023-03-20T14:52:06.690Z,1017.77
2023-03-20T15:07:06.707Z,1017.88
2023-03-20T15:22:06.733Z,1018.01
2023-03-20T15:37:06.722Z,1018.09
2023-03-20T15:52:06.734Z,1018.1
2023-03-20T16:07:06.761Z,1018.01
2023-03-20T16:22:06.762Z,1018.16
2023-03-20T16:37:06.760Z,1018.18
2023-03-20T16:52:06.782Z,1018.36
2023-03-20T17:07:06.830Z,1018.29
2023-03-20T17:22:06.835Z,1018.5
2023-03-20T17:38:06.851Z,1018.54
2023-03-20T17:53:06.863Z,1018.7
2023-03-20T18:08:06.872Z,1018.8
2023-03-20T18:22:06.881Z,1018.73
2023-03-20T18:37:06.897Z,1018.92
2023-03-20T18:51:06.911Z,1019
2023-03-20T19:05:07.122Z,1018.9
2023-03-20T19:19:06.944Z,1018.97
2023-03-20T19:33:07.009Z,1019.05
2023-03-20T19:47:06.988Z,1019.05
2023-03-20T20:01:14.199Z,1019.12
2023-03-20T20:15:06.992Z,1019.29
2023-03-20T20:29:07.008Z,1019.22
2023-03-20T20:43:10.198Z,1019.18
2023-03-20T20:57:07.065Z,1019.17
2023-03-20T21:11:07.033Z,1019.13
2023-03-20T21:25:14.183Z,1019.14
2023-03-20T21:39:08.902Z,1019.18
2023-03-20T21:53:46.671Z,1019.16
2023-03-20T22:07:42.586Z,1019.17
2023-03-20T22:21:42.754Z,1019.15
2023-03-20T22:49:07.135Z,1019.07
2023-03-20T23:03:17.500Z,1018.93
2023-03-20T23:17:07.260Z,1018.85
2023-03-20T23:31:10.317Z,1018.81
2023-03-20T23:45:19.417Z,1018.7
2023-03-20T23:59:18.548Z,1018.6
